sensor_id;sensor_type;location;lat;lon;timestamp;P1;durP1;ratioP1;P2;durP2;ratioP2
6693;SDS011;3384;42.628;23.380;2022-08-30T00:00:26;8.97;;;7.63;;
6693;SDS011;3384;42.628;23.380;2022-08-30T00:03:11;14.97;;;8.17;;
6693;SDS011;3384;42.628;23.380;2022-08-30T00:05:39;8.67;;;7.70;;
6693;SDS011;3384;42.628;23.380;2022-08-30T00:08:07;9.57;;;8.30;;
6693;SDS011;3384;42.628;23.380;2022-08-30T00:10:34;10.37;;;8.00;;
6693;SDS011;3384;42.628;23.380;2022-08-30T00:13:02;8.53;;;7.80;;
6693;SDS011;3384;42.628;23.380;2022-08-30T00:15:32;10.67;;;8.00;;
6693;SDS011;3384;42.628;23.380;2022-08-30T00:17:59;8.37;;;7.70;;
6693;SDS011;3384;42.628;23.380;2022-08-30T00:20:27;9.07;;;8.00;;
6693;SDS011;3384;42.628;23.380;2022-08-30T00:22:55;16.33;;;7.93;;
6693;SDS011;3384;42.628;23.380;2022-08-30T00:25:22;13.70;;;8.30;;
6693;SDS011;3384;42.628;23.380;2022-08-30T00:27:50;9.47;;;8.17;;
6693;SDS011;3384;42.628;23.380;2022-08-30T00:30:18;10.30;;;7.73;;
6693;SDS011;3384;42.628;23.380;2022-08-30T00:32:47;9.03;;;8.33;;
6693;SDS011;3384;42.628;23.380;2022-08-30T00:35:15;8.97;;;8.10;;
6693;SDS011;3384;42.628;23.380;2022-08-30T00:37:44;11.73;;;8.50;;
6693;SDS011;3384;42.628;23.380;2022-08-30T00:40:11;14.50;;;8.70;;
6693;SDS011;3384;42.628;23.380;2022-08-30T00:42:40;21.17;;;8.97;;
6693;SDS011;3384;42.628;23.380;2022-08-30T00:45:09;10.10;;;9.00;;
6693;SDS011;3384;42.628;23.380;2022-08-30T00:47:38;9.37;;;8.73;;
6693;SDS011;3384;42.628;23.380;2022-08-30T00:50:07;12.80;;;8.37;;
6693;SDS011;3384;42.628;23.380;2022-08-30T00:52:36;8.77;;;7.97;;
6693;SDS011;3384;42.628;23.380;2022-08-30T00:55:06;8.83;;;8.10;;
6693;SDS011;3384;42.628;23.380;2022-08-30T00:57:33;10.83;;;9.47;;
6693;SDS011;3384;42.628;23.380;2022-08-30T01:00:02;8.70;;;8.20;;
6693;SDS011;3384;42.628;23.380;2022-08-30T01:02:31;10.63;;;9.77;;
6693;SDS011;3384;42.628;23.380;2022-08-30T01:04:59;11.53;;;9.40;;
6693;SDS011;3384;42.628;23.380;2022-08-30T01:07:29;10.33;;;9.63;;
6693;SDS011;3384;42.628;23.380;2022-08-30T01:09:56;12.70;;;9.10;;
6693;SDS011;3384;42.628;23.380;2022-08-30T01:12:23;13.30;;;9.13;;
6693;SDS011;3384;42.628;23.380;2022-08-30T01:14:50;14.40;;;8.87;;
6693;SDS011;3384;42.628;23.380;2022-08-30T01:17:17;10.17;;;9.17;;
6693;SDS011;3384;42.628;23.380;2022-08-30T01:19:46;9.07;;;8.27;;
6693;SDS011;3384;42.628;23.380;2022-08-30T01:22:19;9.10;;;8.43;;
6693;SDS011;3384;42.628;23.380;2022-08-30T01:24:52;9.43;;;8.50;;
6693;SDS011;3384;42.628;23.380;2022-08-30T01:27:24;8.67;;;7.93;;
6693;SDS011;3384;42.628;23.380;2022-08-30T01:29:53;8.63;;;8.23;;
6693;SDS011;3384;42.628;23.380;2022-08-30T01:32:22;9.43;;;8.63;;
6693;SDS011;3384;42.628;23.380;2022-08-30T01:34:50;10.77;;;9.70;;
6693;SDS011;3384;42.628;23.380;2022-08-30T01:37:19;9.47;;;8.87;;
6693;SDS011;3384;42.628;23.380;2022-08-30T01:39:50;11.00;;;8.97;;
6693;SDS011;3384;42.628;23.380;2022-08-30T01:42:18;9.03;;;8.43;;
6693;SDS011;3384;42.628;23.380;2022-08-30T01:44:45;11.93;;;9.40;;
6693;SDS011;3384;42.628;23.380;2022-08-30T01:47:13;11.20;;;10.00;;
6693;SDS011;3384;42.628;23.380;2022-08-30T01:49:41;10.67;;;9.90;;
6693;SDS011;3384;42.628;23.380;2022-08-30T01:52:08;11.83;;;10.70;;
6693;SDS011;3384;42.628;23.380;2022-08-30T01:54:36;13.00;;;9.80;;
6693;SDS011;3384;42.628;23.380;2022-08-30T01:57:05;11.63;;;10.07;;
6693;SDS011;3384;42.628;23.380;2022-08-30T01:59:35;9.80;;;9.20;;
6693;SDS011;3384;42.628;23.380;2022-08-30T02:02:04;11.23;;;10.50;;
6693;SDS011;3384;42.628;23.380;2022-08-30T02:04:32;11.07;;;10.10;;
6693;SDS011;3384;42.628;23.380;2022-08-30T02:07:00;11.03;;;10.23;;
6693;SDS011;3384;42.628;23.380;2022-08-30T02:09:27;10.20;;;9.40;;
6693;SDS011;3384;42.628;23.380;2022-08-30T02:11:54;13.40;;;9.40;;
6693;SDS011;3384;42.628;23.380;2022-08-30T02:14:22;10.83;;;8.70;;
6693;SDS011;3384;42.628;23.380;2022-08-30T02:16:50;10.30;;;9.50;;
6693;SDS011;3384;42.628;23.380;2022-08-30T02:19:17;11.27;;;10.13;;
6693;SDS011;3384;42.628;23.380;2022-08-30T02:21:44;13.13;;;9.73;;
6693;SDS011;3384;42.628;23.380;2022-08-30T02:24:11;20.43;;;9.97;;
6693;SDS011;3384;42.628;23.380;2022-08-30T02:26:38;11.10;;;10.00;;
6693;SDS011;3384;42.628;23.380;2022-08-30T02:29:04;9.50;;;8.80;;
6693;SDS011;3384;42.628;23.380;2022-08-30T02:31:31;11.60;;;10.20;;
6693;SDS011;3384;42.628;23.380;2022-08-30T02:34:00;12.13;;;10.90;;
6693;SDS011;3384;42.628;23.380;2022-08-30T02:36:28;11.40;;;10.60;;
6693;SDS011;3384;42.628;23.380;2022-08-30T02:38:55;11.47;;;10.63;;
6693;SDS011;3384;42.628;23.380;2022-08-30T02:41:22;12.33;;;10.40;;
6693;SDS011;3384;42.628;23.380;2022-08-30T02:43:49;10.33;;;9.50;;
6693;SDS011;3384;42.628;23.380;2022-08-30T02:46:22;14.00;;;10.23;;
6693;SDS011;3384;42.628;23.380;2022-08-30T02:48:49;12.53;;;10.50;;
6693;SDS011;3384;42.628;23.380;2022-08-30T02:51:17;11.50;;;10.40;;
6693;SDS011;3384;42.628;23.380;2022-08-30T02:53:45;14.00;;;11.40;;
6693;SDS011;3384;42.628;23.380;2022-08-30T02:56:12;11.10;;;9.80;;
6693;SDS011;3384;42.628;23.380;2022-08-30T02:58:40;11.93;;;10.73;;
6693;SDS011;3384;42.628;23.380;2022-08-30T03:01:08;12.23;;;11.17;;
6693;SDS011;3384;42.628;23.380;2022-08-30T03:03:37;10.90;;;10.00;;
6693;SDS011;3384;42.628;23.380;2022-08-30T03:06:05;12.43;;;10.37;;
6693;SDS011;3384;42.628;23.380;2022-08-30T03:08:34;12.47;;;10.97;;
6693;SDS011;3384;42.628;23.380;2022-08-30T03:11:01;10.90;;;10.13;;
6693;SDS011;3384;42.628;23.380;2022-08-30T03:13:28;13.37;;;10.10;;
6693;SDS011;3384;42.628;23.380;2022-08-30T03:15:56;16.10;;;10.17;;
6693;SDS011;3384;42.628;23.380;2022-08-30T03:18:23;21.20;;;11.27;;
6693;SDS011;3384;42.628;23.380;2022-08-30T03:20:50;13.43;;;12.20;;
6693;SDS011;3384;42.628;23.380;2022-08-30T03:23:17;17.33;;;11.00;;
6693;SDS011;3384;42.628;23.380;2022-08-30T03:25:46;11.47;;;10.40;;
6693;SDS011;3384;42.628;23.380;2022-08-30T03:28:13;11.80;;;10.93;;
6693;SDS011;3384;42.628;23.380;2022-08-30T03:30:40;10.23;;;9.30;;
6693;SDS011;3384;42.628;23.380;2022-08-30T03:33:06;11.60;;;10.47;;
6693;SDS011;3384;42.628;23.380;2022-08-30T03:35:33;11.70;;;10.83;;
6693;SDS011;3384;42.628;23.380;2022-08-30T03:38:00;12.57;;;11.37;;
6693;SDS011;3384;42.628;23.380;2022-08-30T03:40:27;11.80;;;10.80;;
6693;SDS011;3384;42.628;23.380;2022-08-30T03:42:55;11.90;;;10.77;;
6693;SDS011;3384;42.628;23.380;2022-08-30T03:45:22;17.50;;;11.10;;
6693;SDS011;3384;42.628;23.380;2022-08-30T03:47:49;12.57;;;11.37;;
6693;SDS011;3384;42.628;23.380;2022-08-30T03:50:16;13.20;;;11.50;;
6693;SDS011;3384;42.628;23.380;2022-08-30T03:52:43;12.20;;;11.30;;
6693;SDS011;3384;42.628;23.380;2022-08-30T03:55:10;13.30;;;12.20;;
6693;SDS011;3384;42.628;23.380;2022-08-30T03:57:37;13.23;;;11.87;;
6693;SDS011;3384;42.628;23.380;2022-08-30T04:00:09;13.07;;;11.33;;
6693;SDS011;3384;42.628;23.380;2022-08-30T04:02:37;13.93;;;12.47;;
6693;SDS011;3384;42.628;23.380;2022-08-30T04:05:05;15.23;;;12.07;;
6693;SDS011;3384;42.628;23.380;2022-08-30T04:07:33;21.77;;;12.87;;
6693;SDS011;3384;42.628;23.380;2022-08-30T04:10:00;17.97;;;13.43;;
6693;SDS011;3384;42.628;23.380;2022-08-30T04:12:27;15.17;;;13.37;;
6693;SDS011;3384;42.628;23.380;2022-08-30T04:14:54;19.17;;;13.80;;
6693;SDS011;3384;42.628;23.380;2022-08-30T04:17:22;13.63;;;12.50;;
6693;SDS011;3384;42.628;23.380;2022-08-30T04:19:50;15.20;;;13.80;;
6693;SDS011;3384;42.628;23.380;2022-08-30T04:22:16;16.87;;;13.80;;
6693;SDS011;3384;42.628;23.380;2022-08-30T04:24:43;14.60;;;13.20;;
6693;SDS011;3384;42.628;23.380;2022-08-30T04:27:10;16.30;;;14.50;;
6693;SDS011;3384;42.628;23.380;2022-08-30T04:29:37;16.73;;;13.23;;
6693;SDS011;3384;42.628;23.380;2022-08-30T04:32:04;19.40;;;13.87;;
6693;SDS011;3384;42.628;23.380;2022-08-30T04:34:33;17.40;;;14.03;;
6693;SDS011;3384;42.628;23.380;2022-08-30T04:37:00;18.03;;;13.90;;
6693;SDS011;3384;42.628;23.380;2022-08-30T04:39:26;20.40;;;14.60;;
6693;SDS011;3384;42.628;23.380;2022-08-30T04:41:53;24.23;;;14.10;;
6693;SDS011;3384;42.628;23.380;2022-08-30T04:44:21;14.20;;;11.53;;
6693;SDS011;3384;42.628;23.380;2022-08-30T04:46:51;13.60;;;12.00;;
6693;SDS011;3384;42.628;23.380;2022-08-30T04:49:18;15.50;;;12.43;;
6693;SDS011;3384;42.628;23.380;2022-08-30T04:51:48;13.50;;;12.10;;
6693;SDS011;3384;42.628;23.380;2022-08-30T04:54:15;16.20;;;12.80;;
6693;SDS011;3384;42.628;23.380;2022-08-30T04:56:42;14.63;;;12.83;;
6693;SDS011;3384;42.628;23.380;2022-08-30T04:59:08;26.63;;;13.83;;
6693;SDS011;3384;42.628;23.380;2022-08-30T05:01:35;13.43;;;12.43;;
6693;SDS011;3384;42.628;23.380;2022-08-30T05:04:02;14.23;;;12.90;;
6693;SDS011;3384;42.628;23.380;2022-08-30T05:06:31;18.27;;;12.83;;
6693;SDS011;3384;42.628;23.380;2022-08-30T05:08:59;13.37;;;11.93;;
6693;SDS011;3384;42.628;23.380;2022-08-30T05:11:26;25.00;;;13.00;;
6693;SDS011;3384;42.628;23.380;2022-08-30T05:13:53;15.60;;;12.30;;
6693;SDS011;3384;42.628;23.380;2022-08-30T05:16:21;15.20;;;13.83;;
6693;SDS011;3384;42.628;23.380;2022-08-30T05:18:48;17.23;;;15.33;;
6693;SDS011;3384;42.628;23.380;2022-08-30T05:21:18;23.33;;;14.70;;
6693;SDS011;3384;42.628;23.380;2022-08-30T05:23:46;18.83;;;16.10;;
6693;SDS011;3384;42.628;23.380;2022-08-30T05:26:17;15.80;;;14.20;;
6693;SDS011;3384;42.628;23.380;2022-08-30T05:28:46;16.33;;;14.13;;
6693;SDS011;3384;42.628;23.380;2022-08-30T05:31:14;22.23;;;14.27;;
6693;SDS011;3384;42.628;23.380;2022-08-30T05:33:43;26.20;;;16.20;;
6693;SDS011;3384;42.628;23.380;2022-08-30T05:36:11;24.40;;;15.27;;
6693;SDS011;3384;42.628;23.380;2022-08-30T05:38:45;26.67;;;14.90;;
6693;SDS011;3384;42.628;23.380;2022-08-30T05:41:12;26.43;;;17.17;;
6693;SDS011;3384;42.628;23.380;2022-08-30T05:43:40;23.17;;;16.40;;
6693;SDS011;3384;42.628;23.380;2022-08-30T05:46:09;31.10;;;16.03;;
6693;SDS011;3384;42.628;23.380;2022-08-30T05:48:37;25.77;;;15.60;;
6693;SDS011;3384;42.628;23.380;2022-08-30T05:51:05;17.30;;;15.57;;
6693;SDS011;3384;42.628;23.380;2022-08-30T05:53:35;16.73;;;15.23;;
6693;SDS011;3384;42.628;23.380;2022-08-30T05:56:03;26.30;;;17.10;;
6693;SDS011;3384;42.628;23.380;2022-08-30T05:58:32;19.77;;;17.00;;
6693;SDS011;3384;42.628;23.380;2022-08-30T06:01:00;23.23;;;14.67;;
6693;SDS011;3384;42.628;23.380;2022-08-30T06:03:27;22.13;;;15.50;;
6693;SDS011;3384;42.628;23.380;2022-08-30T06:05:56;21.43;;;15.80;;
6693;SDS011;3384;42.628;23.380;2022-08-30T06:08:23;18.57;;;16.20;;
6693;SDS011;3384;42.628;23.380;2022-08-30T06:10:50;19.97;;;17.57;;
6693;SDS011;3384;42.628;23.380;2022-08-30T06:13:17;26.07;;;17.53;;
6693;SDS011;3384;42.628;23.380;2022-08-30T06:15:44;24.23;;;17.77;;
6693;SDS011;3384;42.628;23.380;2022-08-30T06:18:13;27.90;;;19.13;;
6693;SDS011;3384;42.628;23.380;2022-08-30T06:20:40;30.43;;;19.37;;
6693;SDS011;3384;42.628;23.380;2022-08-30T06:23:07;27.03;;;18.43;;
6693;SDS011;3384;42.628;23.380;2022-08-30T06:25:35;22.60;;;17.07;;
6693;SDS011;3384;42.628;23.380;2022-08-30T06:28:03;26.63;;;18.77;;
6693;SDS011;3384;42.628;23.380;2022-08-30T06:30:30;28.40;;;16.63;;
6693;SDS011;3384;42.628;23.380;2022-08-30T06:32:57;23.30;;;17.43;;
6693;SDS011;3384;42.628;23.380;2022-08-30T06:35:26;30.60;;;17.27;;
6693;SDS011;3384;42.628;23.380;2022-08-30T06:37:54;23.60;;;16.20;;
6693;SDS011;3384;42.628;23.380;2022-08-30T06:40:21;24.17;;;17.97;;
6693;SDS011;3384;42.628;23.380;2022-08-30T06:42:48;27.77;;;16.70;;
6693;SDS011;3384;42.628;23.380;2022-08-30T06:45:15;18.37;;;16.60;;
6693;SDS011;3384;42.628;23.380;2022-08-30T06:47:43;26.10;;;18.43;;
6693;SDS011;3384;42.628;23.380;2022-08-30T06:50:10;18.47;;;16.57;;
6693;SDS011;3384;42.628;23.380;2022-08-30T06:52:42;25.00;;;19.50;;
6693;SDS011;3384;42.628;23.380;2022-08-30T06:55:10;22.13;;;18.10;;
6693;SDS011;3384;42.628;23.380;2022-08-30T06:57:38;21.30;;;18.83;;
6693;SDS011;3384;42.628;23.380;2022-08-30T07:00:06;20.70;;;18.27;;
6693;SDS011;3384;42.628;23.380;2022-08-30T07:02:37;22.33;;;20.03;;
6693;SDS011;3384;42.628;23.380;2022-08-30T07:05:04;19.43;;;17.63;;
6693;SDS011;3384;42.628;23.380;2022-08-30T07:07:32;24.07;;;18.90;;
6693;SDS011;3384;42.628;23.380;2022-08-30T07:10:01;24.83;;;18.63;;
6693;SDS011;3384;42.628;23.380;2022-08-30T07:12:29;21.17;;;18.83;;
6693;SDS011;3384;42.628;23.380;2022-08-30T07:14:56;20.73;;;18.70;;
6693;SDS011;3384;42.628;23.380;2022-08-30T07:17:23;28.90;;;20.33;;
6693;SDS011;3384;42.628;23.380;2022-08-30T07:20:08;22.37;;;18.57;;
6693;SDS011;3384;42.628;23.380;2022-08-30T07:22:35;21.07;;;18.87;;
6693;SDS011;3384;42.628;23.380;2022-08-30T07:25:04;20.43;;;18.20;;
6693;SDS011;3384;42.628;23.380;2022-08-30T07:27:31;19.37;;;17.47;;
6693;SDS011;3384;42.628;23.380;2022-08-30T07:29:58;28.97;;;19.43;;
6693;SDS011;3384;42.628;23.380;2022-08-30T07:32:26;24.73;;;19.57;;
6693;SDS011;3384;42.628;23.380;2022-08-30T07:34:53;31.27;;;18.73;;
6693;SDS011;3384;42.628;23.380;2022-08-30T07:37:20;28.47;;;18.63;;
6693;SDS011;3384;42.628;23.380;2022-08-30T07:39:47;32.73;;;21.50;;
6693;SDS011;3384;42.628;23.380;2022-08-30T07:42:15;34.53;;;20.17;;
6693;SDS011;3384;42.628;23.380;2022-08-30T07:44:43;27.70;;;20.40;;
6693;SDS011;3384;42.628;23.380;2022-08-30T07:47:10;29.87;;;22.67;;
6693;SDS011;3384;42.628;23.380;2022-08-30T07:49:37;28.23;;;20.67;;
6693;SDS011;3384;42.628;23.380;2022-08-30T07:52:04;24.00;;;21.33;;
6693;SDS011;3384;42.628;23.380;2022-08-30T07:54:32;32.37;;;19.30;;
6693;SDS011;3384;42.628;23.380;2022-08-30T07:56:59;42.70;;;21.30;;
6693;SDS011;3384;42.628;23.380;2022-08-30T07:59:27;27.87;;;20.57;;
6693;SDS011;3384;42.628;23.380;2022-08-30T08:01:54;21.93;;;19.33;;
6693;SDS011;3384;42.628;23.380;2022-08-30T08:04:21;35.07;;;23.50;;
6693;SDS011;3384;42.628;23.380;2022-08-30T08:06:48;30.80;;;24.20;;
6693;SDS011;3384;42.628;23.380;2022-08-30T08:09:15;28.90;;;20.37;;
6693;SDS011;3384;42.628;23.380;2022-08-30T08:11:42;27.10;;;22.90;;
6693;SDS011;3384;42.628;23.380;2022-08-30T08:14:09;27.90;;;23.50;;
6693;SDS011;3384;42.628;23.380;2022-08-30T08:16:37;36.30;;;28.00;;
6693;SDS011;3384;42.628;23.380;2022-08-30T08:19:06;36.43;;;28.00;;
6693;SDS011;3384;42.628;23.380;2022-08-30T08:21:33;37.00;;;27.80;;
6693;SDS011;3384;42.628;23.380;2022-08-30T08:24:00;44.93;;;29.10;;
6693;SDS011;3384;42.628;23.380;2022-08-30T08:26:27;39.70;;;28.50;;
6693;SDS011;3384;42.628;23.380;2022-08-30T08:28:54;35.33;;;26.20;;
6693;SDS011;3384;42.628;23.380;2022-08-30T08:31:22;40.80;;;26.20;;
6693;SDS011;3384;42.628;23.380;2022-08-30T08:33:52;23.93;;;21.60;;
6693;SDS011;3384;42.628;23.380;2022-08-30T08:36:18;30.43;;;23.20;;
6693;SDS011;3384;42.628;23.380;2022-08-30T08:38:45;26.13;;;19.70;;
6693;SDS011;3384;42.628;23.380;2022-08-30T08:41:17;28.43;;;20.80;;
6693;SDS011;3384;42.628;23.380;2022-08-30T08:43:55;25.60;;;20.67;;
6693;SDS011;3384;42.628;23.380;2022-08-30T08:46:24;21.20;;;18.00;;
6693;SDS011;3384;42.628;23.380;2022-08-30T08:49:00;26.33;;;18.50;;
6693;SDS011;3384;42.628;23.380;2022-08-30T08:51:31;21.27;;;18.70;;
6693;SDS011;3384;42.628;23.380;2022-08-30T08:54:18;20.30;;;18.20;;
6693;SDS011;3384;42.628;23.380;2022-08-30T08:56:49;19.87;;;17.83;;
6693;SDS011;3384;42.628;23.380;2022-08-30T08:59:16;20.17;;;17.53;;
6693;SDS011;3384;42.628;23.380;2022-08-30T09:01:44;17.37;;;15.10;;
6693;SDS011;3384;42.628;23.380;2022-08-30T09:04:16;26.33;;;16.30;;
6693;SDS011;3384;42.628;23.380;2022-08-30T09:06:49;21.83;;;15.00;;
6693;SDS011;3384;42.628;23.380;2022-08-30T09:09:23;16.40;;;14.67;;
6693;SDS011;3384;42.628;23.380;2022-08-30T09:11:54;20.03;;;16.07;;
6693;SDS011;3384;42.628;23.380;2022-08-30T09:14:22;27.03;;;15.40;;
6693;SDS011;3384;42.628;23.380;2022-08-30T09:16:56;17.63;;;15.70;;
6693;SDS011;3384;42.628;23.380;2022-08-30T09:19:34;18.67;;;14.23;;
6693;SDS011;3384;42.628;23.380;2022-08-30T09:22:05;13.60;;;12.23;;
6693;SDS011;3384;42.628;23.380;2022-08-30T09:24:38;15.50;;;10.90;;
6693;SDS011;3384;42.628;23.380;2022-08-30T09:27:18;14.33;;;10.97;;
6693;SDS011;3384;42.628;23.380;2022-08-30T09:29:49;13.80;;;11.70;;
6693;SDS011;3384;42.628;23.380;2022-08-30T09:32:25;11.60;;;10.37;;
6693;SDS011;3384;42.628;23.380;2022-08-30T09:34:56;13.50;;;9.90;;
6693;SDS011;3384;42.628;23.380;2022-08-30T09:37:25;10.27;;;9.27;;
6693;SDS011;3384;42.628;23.380;2022-08-30T09:39:55;12.70;;;11.47;;
6693;SDS011;3384;42.628;23.380;2022-08-30T09:42:24;17.70;;;10.80;;
6693;SDS011;3384;42.628;23.380;2022-08-30T09:44:53;11.60;;;9.67;;
6693;SDS011;3384;42.628;23.380;2022-08-30T09:47:34;9.73;;;8.83;;
6693;SDS011;3384;42.628;23.380;2022-08-30T09:50:07;9.10;;;8.40;;
6693;SDS011;3384;42.628;23.380;2022-08-30T09:52:40;14.40;;;10.00;;
6693;SDS011;3384;42.628;23.380;2022-08-30T09:55:22;11.17;;;10.20;;
6693;SDS011;3384;42.628;23.380;2022-08-30T09:58:00;9.90;;;9.20;;
6693;SDS011;3384;42.628;23.380;2022-08-30T10:00:36;9.97;;;9.27;;
6693;SDS011;3384;42.628;23.380;2022-08-30T10:03:19;12.53;;;10.30;;
6693;SDS011;3384;42.628;23.380;2022-08-30T10:05:57;15.83;;;10.30;;
6693;SDS011;3384;42.628;23.380;2022-08-30T10:08:33;11.47;;;10.50;;
6693;SDS011;3384;42.628;23.380;2022-08-30T10:11:09;14.50;;;10.50;;
6693;SDS011;3384;42.628;23.380;2022-08-30T10:13:52;12.63;;;10.60;;
6693;SDS011;3384;42.628;23.380;2022-08-30T10:16:32;13.50;;;10.00;;
6693;SDS011;3384;42.628;23.380;2022-08-30T10:19:11;11.27;;;10.20;;
6693;SDS011;3384;42.628;23.380;2022-08-30T10:21:47;12.60;;;10.73;;
6693;SDS011;3384;42.628;23.380;2022-08-30T10:24:19;17.43;;;13.10;;
6693;SDS011;3384;42.628;23.380;2022-08-30T10:26:51;17.57;;;13.00;;
6693;SDS011;3384;42.628;23.380;2022-08-30T10:29:24;21.50;;;15.40;;
6693;SDS011;3384;42.628;23.380;2022-08-30T10:31:58;33.37;;;15.70;;
6693;SDS011;3384;42.628;23.380;2022-08-30T10:34:30;21.10;;;14.17;;
6693;SDS011;3384;42.628;23.380;2022-08-30T10:37:04;27.27;;;15.20;;
6693;SDS011;3384;42.628;23.380;2022-08-30T10:39:36;19.47;;;14.17;;
6693;SDS011;3384;42.628;23.380;2022-08-30T10:42:09;38.23;;;16.23;;
6693;SDS011;3384;42.628;23.380;2022-08-30T10:44:42;29.03;;;14.97;;
6693;SDS011;3384;42.628;23.380;2022-08-30T10:47:13;23.93;;;14.67;;
6693;SDS011;3384;42.628;23.380;2022-08-30T10:49:50;18.13;;;13.27;;
6693;SDS011;3384;42.628;23.380;2022-08-30T10:52:27;14.87;;;13.47;;
6693;SDS011;3384;42.628;23.380;2022-08-30T10:55:00;15.90;;;12.87;;
6693;SDS011;3384;42.628;23.380;2022-08-30T10:57:32;20.43;;;14.30;;
6693;SDS011;3384;42.628;23.380;2022-08-30T11:00:00;18.73;;;13.57;;
6693;SDS011;3384;42.628;23.380;2022-08-30T11:02:36;17.33;;;13.10;;
6693;SDS011;3384;42.628;23.380;2022-08-30T11:05:34;13.13;;;12.03;;
6693;SDS011;3384;42.628;23.380;2022-08-30T11:08:28;15.23;;;11.40;;
6693;SDS011;3384;42.628;23.380;2022-08-30T11:11:12;15.87;;;11.10;;
6693;SDS011;3384;42.628;23.380;2022-08-30T11:13:45;12.57;;;11.40;;
6693;SDS011;3384;42.628;23.380;2022-08-30T11:16:15;14.70;;;11.20;;
6693;SDS011;3384;42.628;23.380;2022-08-30T11:18:44;11.47;;;10.33;;
6693;SDS011;3384;42.628;23.380;2022-08-30T11:21:18;10.63;;;9.50;;
6693;SDS011;3384;42.628;23.380;2022-08-30T11:24:00;12.67;;;10.73;;
6693;SDS011;3384;42.628;23.380;2022-08-30T11:29:30;10.30;;;9.20;;
6693;SDS011;3384;42.628;23.380;2022-08-30T11:34:55;12.40;;;9.80;;
6693;SDS011;3384;42.628;23.380;2022-08-30T11:37:37;12.00;;;11.10;;
6693;SDS011;3384;42.628;23.380;2022-08-30T11:46:15;25.40;;;11.40;;
6693;SDS011;3384;42.628;23.380;2022-08-30T11:48:47;24.07;;;11.57;;
6693;SDS011;3384;42.628;23.380;2022-08-30T11:54:33;23.90;;;12.67;;
6693;SDS011;3384;42.628;23.380;2022-08-30T11:57:10;14.27;;;10.93;;
6693;SDS011;3384;42.628;23.380;2022-08-30T11:59:49;15.50;;;10.23;;
6693;SDS011;3384;42.628;23.380;2022-08-30T12:02:45;16.80;;;10.87;;
6693;SDS011;3384;42.628;23.380;2022-08-30T12:14:33;11.77;;;10.77;;
6693;SDS011;3384;42.628;23.380;2022-08-30T12:17:09;15.23;;;10.80;;
6693;SDS011;3384;42.628;23.380;2022-08-30T12:19:57;18.20;;;10.83;;
6693;SDS011;3384;42.628;23.380;2022-08-30T12:22:25;15.67;;;12.17;;
6693;SDS011;3384;42.628;23.380;2022-08-30T12:24:54;13.17;;;11.83;;
6693;SDS011;3384;42.628;23.380;2022-08-30T12:27:23;13.57;;;11.23;;
6693;SDS011;3384;42.628;23.380;2022-08-30T12:29:52;18.90;;;12.20;;
6693;SDS011;3384;42.628;23.380;2022-08-30T12:32:20;13.67;;;12.27;;
6693;SDS011;3384;42.628;23.380;2022-08-30T12:34:48;21.50;;;12.90;;
6693;SDS011;3384;42.628;23.380;2022-08-30T12:37:20;17.47;;;12.63;;
6693;SDS011;3384;42.628;23.380;2022-08-30T12:39:58;16.90;;;11.40;;
6693;SDS011;3384;42.628;23.380;2022-08-30T12:42:28;11.70;;;10.60;;
6693;SDS011;3384;42.628;23.380;2022-08-30T12:44:57;14.40;;;11.53;;
6693;SDS011;3384;42.628;23.380;2022-08-30T12:47:26;16.43;;;11.07;;
6693;SDS011;3384;42.628;23.380;2022-08-30T12:49:57;15.90;;;11.67;;
6693;SDS011;3384;42.628;23.380;2022-08-30T12:52:28;23.00;;;11.50;;
6693;SDS011;3384;42.628;23.380;2022-08-30T12:55:04;14.07;;;12.07;;
6693;SDS011;3384;42.628;23.380;2022-08-30T12:57:37;11.97;;;10.90;;
6693;SDS011;3384;42.628;23.380;2022-08-30T13:00:06;14.77;;;11.07;;
6693;SDS011;3384;42.628;23.380;2022-08-30T13:02:42;12.63;;;11.40;;
6693;SDS011;3384;42.628;23.380;2022-08-30T13:05:29;11.77;;;10.73;;
6693;SDS011;3384;42.628;23.380;2022-08-30T13:08:10;16.17;;;12.37;;
6693;SDS011;3384;42.628;23.380;2022-08-30T13:10:51;13.17;;;12.13;;
6693;SDS011;3384;42.628;23.380;2022-08-30T13:13:29;18.83;;;11.13;;
6693;SDS011;3384;42.628;23.380;2022-08-30T13:16:09;13.27;;;12.03;;
6693;SDS011;3384;42.628;23.380;2022-08-30T13:18:45;15.83;;;11.70;;
6693;SDS011;3384;42.628;23.380;2022-08-30T13:21:18;14.20;;;11.73;;
6693;SDS011;3384;42.628;23.380;2022-08-30T13:23:49;18.60;;;12.27;;
6693;SDS011;3384;42.628;23.380;2022-08-30T13:26:17;13.20;;;12.10;;
6693;SDS011;3384;42.628;23.380;2022-08-30T13:28:45;18.40;;;13.40;;
6693;SDS011;3384;42.628;23.380;2022-08-30T13:31:14;12.93;;;11.60;;
6693;SDS011;3384;42.628;23.380;2022-08-30T13:33:41;13.63;;;12.10;;
6693;SDS011;3384;42.628;23.380;2022-08-30T13:36:10;15.63;;;12.40;;
6693;SDS011;3384;42.628;23.380;2022-08-30T13:38:38;19.23;;;11.57;;
6693;SDS011;3384;42.628;23.380;2022-08-30T13:41:06;20.90;;;11.70;;
6693;SDS011;3384;42.628;23.380;2022-08-30T13:43:33;12.83;;;11.43;;
6693;SDS011;3384;42.628;23.380;2022-08-30T13:46:00;15.23;;;11.57;;
6693;SDS011;3384;42.628;23.380;2022-08-30T13:48:27;20.70;;;13.50;;
6693;SDS011;3384;42.628;23.380;2022-08-30T13:50:54;21.53;;;14.07;;
6693;SDS011;3384;42.628;23.380;2022-08-30T13:53:21;13.93;;;12.70;;
6693;SDS011;3384;42.628;23.380;2022-08-30T13:55:48;16.20;;;12.37;;
6693;SDS011;3384;42.628;23.380;2022-08-30T13:58:17;16.83;;;12.30;;
6693;SDS011;3384;42.628;23.380;2022-08-30T14:00:44;15.20;;;12.50;;
6693;SDS011;3384;42.628;23.380;2022-08-30T14:03:11;17.20;;;12.10;;
6693;SDS011;3384;42.628;23.380;2022-08-30T14:05:39;19.27;;;13.53;;
6693;SDS011;3384;42.628;23.380;2022-08-30T14:08:08;12.97;;;11.77;;
6693;SDS011;3384;42.628;23.380;2022-08-30T14:10:36;14.67;;;13.20;;
6693;SDS011;3384;42.628;23.380;2022-08-30T14:13:03;19.63;;;12.10;;
6693;SDS011;3384;42.628;23.380;2022-08-30T14:15:32;17.17;;;12.03;;
6693;SDS011;3384;42.628;23.380;2022-08-30T14:17:59;12.87;;;11.60;;
6693;SDS011;3384;42.628;23.380;2022-08-30T14:20:26;16.93;;;12.10;;
6693;SDS011;3384;42.628;23.380;2022-08-30T14:22:53;27.50;;;12.53;;
6693;SDS011;3384;42.628;23.380;2022-08-30T14:25:20;13.20;;;12.07;;
6693;SDS011;3384;42.628;23.380;2022-08-30T14:27:47;18.33;;;13.33;;
6693;SDS011;3384;42.628;23.380;2022-08-30T14:30:14;16.53;;;12.37;;
6693;SDS011;3384;42.628;23.380;2022-08-30T14:32:42;17.80;;;12.30;;
6693;SDS011;3384;42.628;23.380;2022-08-30T14:35:09;13.33;;;11.70;;
6693;SDS011;3384;42.628;23.380;2022-08-30T14:37:36;18.03;;;12.37;;
6693;SDS011;3384;42.628;23.380;2022-08-30T14:40:03;18.30;;;13.13;;
6693;SDS011;3384;42.628;23.380;2022-08-30T14:42:30;14.40;;;12.80;;
6693;SDS011;3384;42.628;23.380;2022-08-30T14:44:57;14.30;;;12.37;;
6693;SDS011;3384;42.628;23.380;2022-08-30T14:47:24;16.30;;;12.57;;
6693;SDS011;3384;42.628;23.380;2022-08-30T14:49:52;14.03;;;11.73;;
6693;SDS011;3384;42.628;23.380;2022-08-30T14:52:22;14.63;;;12.13;;
6693;SDS011;3384;42.628;23.380;2022-08-30T14:54:49;17.20;;;13.00;;
6693;SDS011;3384;42.628;23.380;2022-08-30T14:57:16;18.20;;;14.00;;
6693;SDS011;3384;42.628;23.380;2022-08-30T14:59:43;14.37;;;12.57;;
6693;SDS011;3384;42.628;23.380;2022-08-30T15:05:06;18.40;;;12.43;;
6693;SDS011;3384;42.628;23.380;2022-08-30T15:07:33;17.77;;;13.60;;
6693;SDS011;3384;42.628;23.380;2022-08-30T15:10:00;16.63;;;13.40;;
6693;SDS011;3384;42.628;23.380;2022-08-30T15:12:27;21.27;;;14.13;;
6693;SDS011;3384;42.628;23.380;2022-08-30T15:14:54;15.93;;;12.63;;
6693;SDS011;3384;42.628;23.380;2022-08-30T15:17:21;22.23;;;13.47;;
6693;SDS011;3384;42.628;23.380;2022-08-30T15:19:48;22.97;;;14.90;;